sensor_id;sensor_type;location;lat;lon;timestamp;pressure;altitude;pressure_sealevel;temperature;humidity
78354;BME280;67629;46.040;18.232;2024-02-15T00:00:04;100456.38;;;8.30;69.09
78354;BME280;67629;46.040;18.232;2024-02-15T00:00:34;100456.81;;;8.34;69.35
78354;BME280;67629;46.040;18.232;2024-02-15T00:01:06;100451.16;;;8.35;68.97
78354;BME280;67629;46.040;18.232;2024-02-15T00:02:15;100456.59;;;8.42;68.50
78354;BME280;67629;46.040;18.232;2024-02-15T00:03:25;100444.47;;;8.38;68.63
78354;BME280;67629;46.040;18.232;2024-02-15T00:03:56;100445.09;;;8.33;68.98
78354;BME280;67629;46.040;18.232;2024-02-15T00:04:27;100446.34;;;8.31;69.21
78354;BME280;67629;46.040;18.232;2024-02-15T00:04:59;100446.31;;;8.24;68.77
78354;BME280;67629;46.040;18.232;2024-02-15T00:05:30;100441.50;;;8.26;68.82
78354;BME280;67629;46.040;18.232;2024-02-15T00:06:00;100449.28;;;8.29;68.95
78354;BME280;67629;46.040;18.232;2024-02-15T00:06:31;100443.19;;;8.27;68.83
78354;BME280;67629;46.040;18.232;2024-02-15T00:07:40;100446.31;;;8.24;69.41
78354;BME280;67629;46.040;18.232;2024-02-15T00:08:48;100447.97;;;8.19;69.74
78354;BME280;67629;46.040;18.232;2024-02-15T00:09:22;100442.53;;;8.25;69.17
78354;BME280;67629;46.040;18.232;2024-02-15T00:09:53;100444.88;;;8.28;69.55
78354;BME280;67629;46.040;18.232;2024-02-15T00:11:16;100442.31;;;8.27;69.29
78354;BME280;67629;46.040;18.232;2024-02-15T00:11:47;100441.94;;;8.30;69.40
78354;BME280;67629;46.040;18.232;2024-02-15T00:15:15;100442.78;;;8.50;68.24
78354;BME280;67629;46.040;18.232;2024-02-15T00:17:40;100433.75;;;8.56;67.48
78354;BME280;67629;46.040;18.232;2024-02-15T00:20:40;100434.00;;;8.54;67.26
78354;BME280;67629;46.040;18.232;2024-02-15T00:21:11;100438.16;;;8.50;66.80
78354;BME280;67629;46.040;18.232;2024-02-15T00:22:48;100437.13;;;8.38;67.90
78354;BME280;67629;46.040;18.232;2024-02-15T00:23:19;100437.53;;;8.35;68.29
78354;BME280;67629;46.040;18.232;2024-02-15T00:24:45;100436.69;;;8.41;67.38
78354;BME280;67629;46.040;18.232;2024-02-15T00:25:17;100443.00;;;8.42;67.60
78354;BME280;67629;46.040;18.232;2024-02-15T00:25:50;100437.53;;;8.42;67.66
78354;BME280;67629;46.040;18.232;2024-02-15T00:26:20;100435.06;;;8.40;67.82
78354;BME280;67629;46.040;18.232;2024-02-15T00:26:51;100427.91;;;8.39;67.60
78354;BME280;67629;46.040;18.232;2024-02-15T00:27:22;100438.38;;;8.42;67.50
78354;BME280;67629;46.040;18.232;2024-02-15T00:27:52;100430.22;;;8.42;67.27
78354;BME280;67629;46.040;18.232;2024-02-15T00:28:23;100426.25;;;8.51;66.88
78354;BME280;67629;46.040;18.232;2024-02-15T00:28:54;100428.78;;;8.46;67.27
78354;BME280;67629;46.040;18.232;2024-02-15T00:29:25;100434.63;;;8.43;67.64
78354;BME280;67629;46.040;18.232;2024-02-15T00:29:58;100438.59;;;8.41;68.59
78354;BME280;67629;46.040;18.232;2024-02-15T00:30:29;100437.97;;;8.39;67.72
78354;BME280;67629;46.040;18.232;2024-02-15T00:31:01;100441.75;;;8.38;68.42
78354;BME280;67629;46.040;18.232;2024-02-15T00:31:33;100436.31;;;8.31;68.90
78354;BME280;67629;46.040;18.232;2024-02-15T00:32:04;100438.59;;;8.34;68.36
78354;BME280;67629;46.040;18.232;2024-02-15T00:32:36;100434.63;;;8.37;67.62
78354;BME280;67629;46.040;18.232;2024-02-15T00:33:07;100435.66;;;8.36;68.47
78354;BME280;67629;46.040;18.232;2024-02-15T00:34:09;100430.00;;;8.31;69.16
78354;BME280;67629;46.040;18.232;2024-02-15T00:34:40;100433.59;;;8.31;68.66
78354;BME280;67629;46.040;18.232;2024-02-15T00:35:11;100438.59;;;8.34;68.66
78354;BME280;67629;46.040;18.232;2024-02-15T00:35:43;100436.50;;;8.36;68.90
78354;BME280;67629;46.040;18.232;2024-02-15T00:36:14;100433.34;;;8.33;68.17
78354;BME280;67629;46.040;18.232;2024-02-15T00:36:45;100443.41;;;8.39;68.09
78354;BME280;67629;46.040;18.232;2024-02-15T00:37:15;100443.41;;;8.45;67.83
78354;BME280;67629;46.040;18.232;2024-02-15T00:37:46;100447.38;;;8.49;67.42
78354;BME280;67629;46.040;18.232;2024-02-15T00:38:17;100444.88;;;8.48;67.25
78354;BME280;67629;46.040;18.232;2024-02-15T00:38:49;100439.66;;;8.40;67.62
78354;BME280;67629;46.040;18.232;2024-02-15T00:39:20;100431.69;;;8.38;68.04
78354;BME280;67629;46.040;18.232;2024-02-15T00:39:51;100446.56;;;8.42;67.59
78354;BME280;67629;46.040;18.232;2024-02-15T00:40:21;100444.25;;;8.39;67.56
78354;BME280;67629;46.040;18.232;2024-02-15T00:40:52;100437.78;;;8.40;67.69
78354;BME280;67629;46.040;18.232;2024-02-15T00:41:23;100444.47;;;8.38;67.10
78354;BME280;67629;46.040;18.232;2024-02-15T00:41:54;100447.81;;;8.40;67.93
78354;BME280;67629;46.040;18.232;2024-02-15T00:42:25;100448.66;;;8.40;68.49
78354;BME280;67629;46.040;18.232;2024-02-15T00:42:56;100442.78;;;8.37;67.75
78354;BME280;67629;46.040;18.232;2024-02-15T00:43:27;100448.00;;;8.38;68.45
78354;BME280;67629;46.040;18.232;2024-02-15T00:43:58;100443.81;;;8.36;68.36
78354;BME280;67629;46.040;18.232;2024-02-15T00:44:28;100438.19;;;8.31;68.86
78354;BME280;67629;46.040;18.232;2024-02-15T00:44:59;100437.97;;;8.32;68.85
78354;BME280;67629;46.040;18.232;2024-02-15T00:45:30;100435.03;;;8.27;68.85
78354;BME280;67629;46.040;18.232;2024-02-15T00:46:00;100439.66;;;8.33;69.05
78354;BME280;67629;46.040;18.232;2024-02-15T00:46:31;100436.50;;;8.43;68.53
78354;BME280;67629;46.040;18.232;2024-02-15T00:47:03;100440.69;;;8.45;68.47
78354;BME280;67629;46.040;18.232;2024-02-15T00:47:33;100442.38;;;8.40;68.67
78354;BME280;67629;46.040;18.232;2024-02-15T00:48:04;100434.00;;;8.35;68.86
78354;BME280;67629;46.040;18.232;2024-02-15T00:48:37;100443.41;;;8.32;69.07
78354;BME280;67629;46.040;18.232;2024-02-15T00:49:07;100435.22;;;8.26;68.96
78354;BME280;67629;46.040;18.232;2024-02-15T00:49:38;100437.75;;;8.27;69.10
78354;BME280;67629;46.040;18.232;2024-02-15T00:50:09;100437.75;;;8.27;69.60
78354;BME280;67629;46.040;18.232;2024-02-15T00:50:40;100438.78;;;8.26;69.94
78354;BME280;67629;46.040;18.232;2024-02-15T00:51:11;100438.13;;;8.24;69.68
78354;BME280;67629;46.040;18.232;2024-02-15T00:51:41;100444.22;;;8.26;69.61
78354;BME280;67629;46.040;18.232;2024-02-15T00:52:12;100436.47;;;8.23;69.62
78354;BME280;67629;46.040;18.232;2024-02-15T00:52:42;100441.31;;;8.28;69.93
78354;BME280;67629;46.040;18.232;2024-02-15T00:53:14;100444.47;;;8.31;70.10
78354;BME280;67629;46.040;18.232;2024-02-15T00:53:44;100436.72;;;8.28;69.42
78354;BME280;67629;46.040;18.232;2024-02-15T00:54:15;100432.50;;;8.26;69.57
78354;BME280;67629;46.040;18.232;2024-02-15T00:54:46;100441.50;;;8.26;69.51
78354;BME280;67629;46.040;18.232;2024-02-15T00:55:17;100439.81;;;8.25;69.99
78354;BME280;67629;46.040;18.232;2024-02-15T00:55:48;100435.69;;;8.29;69.58
78354;BME280;67629;46.040;18.232;2024-02-15T00:56:18;100433.97;;;8.22;70.84
78354;BME280;67629;46.040;18.232;2024-02-15T00:56:49;100439.41;;;8.22;70.99
78354;BME280;67629;46.040;18.232;2024-02-15T00:57:19;100433.53;;;8.25;70.69
78354;BME280;67629;46.040;18.232;2024-02-15T00:57:50;100434.16;;;8.27;70.31
78354;BME280;67629;46.040;18.232;2024-02-15T00:58:20;100439.44;;;8.35;70.25
78354;BME280;67629;46.040;18.232;2024-02-15T00:58:52;100435.66;;;8.36;70.11
78354;BME280;67629;46.040;18.232;2024-02-15T00:59:22;100436.06;;;8.33;70.05
78354;BME280;67629;46.040;18.232;2024-02-15T00:59:53;100432.09;;;8.35;69.98
78354;BME280;67629;46.040;18.232;2024-02-15T01:00:23;100432.31;;;8.27;70.82
78354;BME280;67629;46.040;18.232;2024-02-15T01:00:54;100438.13;;;8.24;70.90
78354;BME280;67629;46.040;18.232;2024-02-15T01:01:24;100436.25;;;8.18;71.30
78354;BME280;67629;46.040;18.232;2024-02-15T01:01:55;100436.88;;;8.14;71.32
78354;BME280;67629;46.040;18.232;2024-02-15T01:02:26;100434.16;;;8.14;71.72
78354;BME280;67629;46.040;18.232;2024-02-15T01:02:58;100428.72;;;8.14;71.73
78354;BME280;67629;46.040;18.232;2024-02-15T01:03:29;100431.03;;;8.17;71.95
78354;BME280;67629;46.040;18.232;2024-02-15T01:03:59;100431.25;;;8.09;72.32
78354;BME280;67629;46.040;18.232;2024-02-15T01:04:30;100436.25;;;8.12;73.20
78354;BME280;67629;46.040;18.232;2024-02-15T01:05:00;100432.09;;;8.09;73.00
78354;BME280;67629;46.040;18.232;2024-02-15T01:05:31;100432.09;;;8.09;72.96
78354;BME280;67629;46.040;18.232;2024-02-15T01:06:01;100433.13;;;8.15;72.26
78354;BME280;67629;46.040;18.232;2024-02-15T01:06:33;100425.16;;;8.13;71.30
78354;BME280;67629;46.040;18.232;2024-02-15T01:07:03;100424.97;;;8.15;71.14
78354;BME280;67629;46.040;18.232;2024-02-15T01:07:34;100425.16;;;8.13;71.39
78354;BME280;67629;46.040;18.232;2024-02-15T01:08:05;100424.53;;;8.11;71.58
78354;BME280;67629;46.040;18.232;2024-02-15T01:08:35;100427.44;;;8.10;71.93
78354;BME280;67629;46.040;18.232;2024-02-15T01:09:07;100427.88;;;8.13;71.98
78354;BME280;67629;46.040;18.232;2024-02-15T01:09:38;100420.97;;;8.04;72.32
78354;BME280;67629;46.040;18.232;2024-02-15T01:10:09;100424.34;;;8.06;71.51
78354;BME280;67629;46.040;18.232;2024-02-15T01:10:40;100425.38;;;8.05;71.60
78354;BME280;67629;46.040;18.232;2024-02-15T01:11:49;100434.56;;;8.04;71.78
78354;BME280;67629;46.040;18.232;2024-02-15T01:12:19;100429.13;;;8.04;72.27
78354;BME280;67629;46.040;18.232;2024-02-15T01:12:51;100424.53;;;8.04;72.08
78354;BME280;67629;46.040;18.232;2024-02-15T01:13:21;100428.50;;;8.02;72.83
78354;BME280;67629;46.040;18.232;2024-02-15T01:13:52;100430.38;;;8.01;72.77
78354;BME280;67629;46.040;18.232;2024-02-15T01:14:23;100434.56;;;8.04;71.62
78354;BME280;67629;46.040;18.232;2024-02-15T01:14:53;100423.69;;;8.04;71.14
78354;BME280;67629;46.040;18.232;2024-02-15T01:15:26;100429.78;;;8.06;71.01
78354;BME280;67629;46.040;18.232;2024-02-15T01:15:56;100432.91;;;8.10;70.59
78354;BME280;67629;46.040;18.232;2024-02-15T01:16:27;100432.69;;;8.11;70.88
78354;BME280;67629;46.040;18.232;2024-02-15T01:16:58;100428.72;;;8.07;71.42
78354;BME280;67629;46.040;18.232;2024-02-15T01:17:28;100429.97;;;8.04;71.54
78354;BME280;67629;46.040;18.232;2024-02-15T01:17:59;100426.22;;;8.06;71.54
78354;BME280;67629;46.040;18.232;2024-02-15T01:18:30;100420.75;;;8.12;71.43
78354;BME280;67629;46.040;18.232;2024-02-15T01:19:02;100425.59;;;8.17;70.59
78354;BME280;67629;46.040;18.232;2024-02-15T01:19:33;100429.59;;;8.21;70.08
78354;BME280;67629;46.040;18.232;2024-02-15T01:20:03;100420.97;;;8.24;69.75
78354;BME280;67629;46.040;18.232;2024-02-15T01:20:34;100428.94;;;8.25;69.99
78354;BME280;67629;46.040;18.232;2024-02-15T01:27:48;100434.16;;;8.07;71.10
78354;BME280;67629;46.040;18.232;2024-02-15T01:28:19;100431.66;;;8.06;71.10
78354;BME280;67629;46.040;18.232;2024-02-15T01:28:50;100426.22;;;8.06;70.83
78354;BME280;67629;46.040;18.232;2024-02-15T01:29:20;100432.50;;;8.06;71.74
78354;BME280;67629;46.040;18.232;2024-02-15T01:29:51;100421.63;;;8.06;71.13
78354;BME280;67629;46.040;18.232;2024-02-15T01:30:22;100427.06;;;8.06;71.13
78354;BME280;67629;46.040;18.232;2024-02-15T01:30:53;100427.44;;;8.10;71.21
78354;BME280;67629;46.040;18.232;2024-02-15T01:31:24;100431.44;;;8.14;70.83
78354;BME280;67629;46.040;18.232;2024-02-15T01:31:55;100421.41;;;8.14;70.93
78354;BME280;67629;46.040;18.232;2024-02-15T01:32:26;100431.00;;;8.10;71.56
78354;BME280;67629;46.040;18.232;2024-02-15T01:32:57;100435.41;;;8.11;70.81
78354;BME280;67629;46.040;18.232;2024-02-15T01:33:27;100430.59;;;8.13;70.04
78354;BME280;67629;46.040;18.232;2024-02-15T01:33:58;100431.22;;;8.15;71.25
78354;BME280;67629;46.040;18.232;2024-02-15T01:34:28;100436.06;;;8.20;69.61
78354;BME280;67629;46.040;18.232;2024-02-15T01:34:59;100425.59;;;8.17;70.24
78354;BME280;67629;46.040;18.232;2024-02-15T01:35:30;100432.06;;;8.16;70.57
78354;BME280;67629;46.040;18.232;2024-02-15T01:36:01;100431.66;;;8.19;70.12
78354;BME280;67629;46.040;18.232;2024-02-15T01:36:31;100425.38;;;8.18;69.90
78354;BME280;67629;46.040;18.232;2024-02-15T01:37:02;100424.31;;;8.19;70.13
78354;BME280;67629;46.040;18.232;2024-02-15T01:37:33;100426.63;;;8.16;70.18
78354;BME280;67629;46.040;18.232;2024-02-15T01:43:17;100432.09;;;8.09;70.78
78354;BME280;67629;46.040;18.232;2024-02-15T01:43:48;100434.34;;;8.12;70.89
78354;BME280;67629;46.040;18.232;2024-02-15T01:44:20;100426.41;;;8.11;71.65
78354;BME280;67629;46.040;18.232;2024-02-15T01:44:50;100431.00;;;8.10;71.32
78354;BME280;67629;46.040;18.232;2024-02-15T01:45:23;100426.00;;;8.07;70.94
78354;BME280;67629;46.040;18.232;2024-02-15T01:45:54;100426.00;;;8.07;71.55
78354;BME280;67629;46.040;18.232;2024-02-15T01:46:25;100435.22;;;8.06;71.83
78354;BME280;67629;46.040;18.232;2024-02-15T01:46:57;100429.56;;;8.08;70.57
78354;BME280;67629;46.040;18.232;2024-02-15T01:47:29;100431.63;;;8.12;70.91
78354;BME280;67629;46.040;18.232;2024-02-15T01:48:01;100433.34;;;8.20;70.13
78354;BME280;67629;46.040;18.232;2024-02-15T01:48:36;100426.63;;;8.16;69.54
78354;BME280;67629;46.040;18.232;2024-02-15T01:49:08;100424.31;;;8.13;70.12
78354;BME280;67629;46.040;18.232;2024-02-15T01:49:39;100427.03;;;8.13;70.42
78354;BME280;67629;46.040;18.232;2024-02-15T01:50:13;100435.84;;;8.15;70.85
78354;BME280;67629;46.040;18.232;2024-02-15T01:50:44;100430.41;;;8.15;70.77
78354;BME280;67629;46.040;18.232;2024-02-15T01:51:15;100430.41;;;8.15;70.62
78354;BME280;67629;46.040;18.232;2024-02-15T01:51:49;100434.16;;;8.14;71.14
78354;BME280;67629;46.040;18.232;2024-02-15T01:52:20;100432.06;;;8.16;70.78
78354;BME280;67629;46.040;18.232;2024-02-15T01:52:54;100432.47;;;8.13;70.38
78354;BME280;67629;46.040;18.232;2024-02-15T01:53:27;100432.28;;;8.14;69.57
78354;BME280;67629;46.040;18.232;2024-02-15T01:53:59;100433.31;;;8.13;70.29
78354;BME280;67629;46.040;18.232;2024-02-15T01:54:32;100421.81;;;8.11;70.07
78354;BME280;67629;46.040;18.232;2024-02-15T01:55:05;100430.41;;;8.15;70.25
78354;BME280;67629;46.040;18.232;2024-02-15T01:55:38;100433.94;;;8.15;70.54
78354;BME280;67629;46.040;18.232;2024-02-15T01:56:12;100435.44;;;8.18;70.14
78354;BME280;67629;46.040;18.232;2024-02-15T01:56:44;100435.03;;;8.21;70.63
78354;BME280;67629;46.040;18.232;2024-02-15T01:57:16;100428.31;;;8.23;69.26
78354;BME280;67629;46.040;18.232;2024-02-15T01:57:48;100429.34;;;8.22;69.57
78354;BME280;67629;46.040;18.232;2024-02-15T01:58:19;100432.72;;;8.18;69.72
78354;BME280;67629;46.040;18.232;2024-02-15T01:58:50;100427.47;;;8.16;70.69
78354;BME280;67629;46.040;18.232;2024-02-15T01:59:23;100432.91;;;8.23;68.64
78354;BME280;67629;46.040;18.232;2024-02-15T01:59:53;100427.72;;;8.28;67.69
78354;BME280;67629;46.040;18.232;2024-02-15T02:00:24;100429.59;;;8.27;68.22
78354;BME280;67629;46.040;18.232;2024-02-15T02:00:56;100426.63;;;8.22;68.83
78354;BME280;67629;46.040;18.232;2024-02-15T02:01:29;100428.50;;;8.22;69.34
78354;BME280;67629;46.040;18.232;2024-02-15T02:02:08;100424.16;;;8.27;68.00
78354;BME280;67629;46.040;18.232;2024-02-15T02:02:42;100421.22;;;8.29;67.80
78354;BME280;67629;46.040;18.232;2024-02-15T02:03:14;100425.00;;;8.34;67.81
78354;BME280;67629;46.040;18.232;2024-02-15T02:03:45;100434.00;;;8.28;68.54
78354;BME280;67629;46.040;18.232;2024-02-15T02:04:16;100421.81;;;8.24;68.12
78354;BME280;67629;46.040;18.232;2024-02-15T02:04:46;100422.88;;;8.23;68.57
78354;BME280;67629;46.040;18.232;2024-02-15T02:05:17;100420.16;;;8.23;69.04
78354;BME280;67629;46.040;18.232;2024-02-15T02:05:48;100429.59;;;8.27;68.68
78354;BME280;67629;46.040;18.232;2024-02-15T02:07:52;100428.56;;;8.28;68.50
78354;BME280;67629;46.040;18.232;2024-02-15T02:08:50;100432.31;;;8.27;69.26
78354;BME280;67629;46.040;18.232;2024-02-15T02:10:37;100427.72;;;8.28;69.02
78354;BME280;67629;46.040;18.232;2024-02-15T02:13:31;100425.00;;;8.28;69.25
78354;BME280;67629;46.040;18.232;2024-02-15T02:15:09;100434.38;;;8.25;68.81
78354;BME280;67629;46.040;18.232;2024-02-15T02:17:13;100431.06;;;8.36;67.65
78354;BME280;67629;46.040;18.232;2024-02-15T02:18:34;100427.31;;;8.37;67.76
78354;BME280;67629;46.040;18.232;2024-02-15T02:19:05;100432.31;;;8.34;68.04
78354;BME280;67629;46.040;18.232;2024-02-15T02:20:49;100435.03;;;8.27;68.30
78354;BME280;67629;46.040;18.232;2024-02-15T02:21:19;100435.69;;;8.29;68.62
78354;BME280;67629;46.040;18.232;2024-02-15T02:22:46;100447.81;;;8.40;68.06
78354;BME280;67629;46.040;18.232;2024-02-15T02:23:21;100440.28;;;8.42;67.36
78354;BME280;67629;46.040;18.232;2024-02-15T02:23:57;100445.53;;;8.43;67.00
78354;BME280;67629;46.040;18.232;2024-02-15T02:24:29;100443.84;;;8.42;66.79
78354;BME280;67629;46.040;18.232;2024-02-15T02:25:05;100440.69;;;8.39;66.72
78354;BME280;67629;46.040;18.232;2024-02-15T02:25:36;100441.94;;;8.36;67.23
78354;BME280;67629;46.040;18.232;2024-02-15T02:26:07;100437.97;;;8.39;67.57
78354;BME280;67629;46.040;18.232;2024-02-15T02:26:40;100433.78;;;8.36;67.44
78354;BME280;67629;46.040;18.232;2024-02-15T02:27:12;100442.78;;;8.37;68.67
78354;BME280;67629;46.040;18.232;2024-02-15T02:27:44;100432.97;;;8.29;68.23
78354;BME280;67629;46.040;18.232;2024-02-15T02:28:15;100438.19;;;8.31;67.74
78354;BME280;67629;46.040;18.232;2024-02-15T02:28:49;100427.47;;;8.23;68.32
78354;BME280;67629;46.040;18.232;2024-02-15T02:29:20;100435.88;;;8.28;68.50
78354;BME280;67629;46.040;18.232;2024-02-15T02:29:51;100437.75;;;8.27;67.81
78354;BME280;67629;46.040;18.232;2024-02-15T02:30:21;100434.63;;;8.30;67.64
78354;BME280;67629;46.040;18.232;2024-02-15T02:30:59;100438.19;;;8.37;67.80
78354;BME280;67629;46.040;18.232;2024-02-15T02:31:36;100428.75;;;8.33;67.80
78354;BME280;67629;46.040;18.232;2024-02-15T02:32:07;100440.91;;;8.37;68.38
78354;BME280;67629;46.040;18.232;2024-02-15T02:32:38;100435.25;;;8.32;67.98
78354;BME280;67629;46.040;18.232;2024-02-15T02:33:12;100440.91;;;8.31;68.32
78354;BME280;67629;46.040;18.232;2024-02-15T02:33:52;100437.75;;;8.27;68.04
78354;BME280;67629;46.040;18.232;2024-02-15T02:34:23;100432.97;;;8.29;67.28
78354;BME280;67629;46.040;18.232;2024-02-15T02:34:56;100435.47;;;8.37;67.64
78354;BME280;67629;46.040;18.232;2024-02-15T02:35:27;100431.28;;;8.35;67.61
78354;BME280;67629;46.040;18.232;2024-02-15T02:36:00;100435.47;;;8.31;67.90
78354;BME280;67629;46.040;18.232;2024-02-15T02:36:30;100431.91;;;8.30;67.99
78354;BME280;67629;46.040;18.232;2024-02-15T02:37:01;100433.34;;;8.26;68.17
78354;BME280;67629;46.040;18.232;2024-02-15T02:37:35;100434.00;;;8.28;67.79
78354;BME280;67629;46.040;18.232;2024-02-15T02:38:07;100433.78;;;8.30;68.37
78354;BME280;67629;46.040;18.232;2024-02-15T02:38:37;100429.41;;;8.29;67.32
78354;BME280;67629;46.040;18.232;2024-02-15T02:39:08;100432.31;;;8.27;67.64
78354;BME280;67629;46.040;18.232;2024-02-15T02:39:39;100428.31;;;8.23;68.19
78354;BME280;67629;46.040;18.232;2024-02-15T02:40:48;100442.16;;;8.41;67.07
78354;BME280;67629;46.040;18.232;2024-02-15T02:41:19;100438.16;;;8.44;66.86
78354;BME280;67629;46.040;18.232;2024-02-15T02:42:22;100440.91;;;8.50;66.36
78354;BME280;67629;46.040;18.232;2024-02-15T02:42:57;100434.59;;;8.50;66.36
78354;BME280;67629;46.040;18.232;2024-02-15T02:43:30;100435.06;;;8.40;67.51
78354;BME280;67629;46.040;18.232;2024-02-15T02:45:07;100435.47;;;8.31;68.31
78354;BME280;67629;46.040;18.232;2024-02-15T02:46:51;100434.63;;;8.37;67.42
78354;BME280;67629;46.040;18.232;2024-02-15T02:47:22;100428.53;;;8.41;66.56
78354;BME280;67629;46.040;18.232;2024-02-15T02:47:54;100421.63;;;8.45;66.88
78354;BME280;67629;46.040;18.232;2024-02-15T02:48:24;100431.69;;;8.51;66.53
78354;BME280;67629;46.040;18.232;2024-02-15T02:48:55;100416.63;;;8.42;66.30
78354;BME280;67629;46.040;18.232;2024-02-15T02:49:26;100427.50;;;8.42;66.49
78354;BME280;67629;46.040;18.232;2024-02-15T02:49:56;100428.31;;;8.49;65.63
78354;BME280;67629;46.040;18.232;2024-02-15T02:50:27;100429.19;;;8.43;67.06
78354;BME280;67629;46.040;18.232;2024-02-15T02:50:59;100431.25;;;8.48;66.35
78354;BME280;67629;46.040;18.232;2024-02-15T02:51:30;100427.28;;;8.44;66.40
78354;BME280;67629;46.040;18.232;2024-02-15T02:52:00;100427.09;;;8.45;66.20
78354;BME280;67629;46.040;18.232;2024-02-15T02:52:31;100425.41;;;8.44;65.72
78354;BME280;67629;46.040;18.232;2024-02-15T02:53:02;100420.81;;;8.51;66.09
78354;BME280;67629;46.040;18.232;2024-02-15T02:53:32;100424.13;;;8.53;65.88
78354;BME280;67629;46.040;18.232;2024-02-15T02:54:03;100424.56;;;8.50;65.90
78354;BME280;67629;46.040;18.232;2024-02-15T02:54:36;100419.13;;;8.50;65.89
78354;BME280;67629;46.040;18.232;2024-02-15T02:55:07;100412.81;;;8.50;65.51
78354;BME280;67629;46.040;18.232;2024-02-15T02:55:39;100421.22;;;8.55;65.63
78354;BME280;67629;46.040;18.232;2024-02-15T02:56:11;100420.16;;;8.49;65.63
78354;BME280;67629;46.040;18.232;2024-02-15T03:02:17;100418.88;;;8.13;67.85
78354;BME280;67629;46.040;18.232;2024-02-15T03:02:48;100427.44;;;8.10;67.76
78354;BME280;67629;46.040;18.232;2024-02-15T03:03:19;100424.31;;;8.19;66.98
78354;BME280;67629;46.040;18.232;2024-02-15T03:03:49;100419.53;;;8.15;67.77
78354;BME280;67629;46.040;18.232;2024-02-15T03:04:20;100421.41;;;8.14;67.54
78354;BME280;67629;46.040;18.232;2024-02-15T03:04:51;100413.84;;;8.16;67.01
78354;BME280;67629;46.040;18.232;2024-02-15T03:05:23;100415.97;;;8.21;67.75
78354;BME280;67629;46.040;18.232;2024-02-15T03:05:54;100425.78;;;8.15;68.26
78354;BME280;67629;46.040;18.232;2024-02-15T03:06:25;100417.84;;;8.14;66.87
78354;BME280;67629;46.040;18.232;2024-02-15T03:06:55;100412.19;;;8.09;68.45
78354;BME280;67629;46.040;18.232;2024-02-15T03:07:28;100422.22;;;8.08;68.15
78354;BME280;67629;46.040;18.232;2024-02-15T03:07:59;100421.19;;;8.09;68.11
78354;BME280;67629;46.040;18.232;2024-02-15T03:08:29;100414.91;;;8.15;67.56
78354;BME280;67629;46.040;18.232;2024-02-15T03:09:00;100420.56;;;8.20;66.58
78354;BME280;67629;46.040;18.232;2024-02-15T03:09:31;100421.00;;;8.17;67.04
78354;BME280;67629;46.040;18.232;2024-02-15T03:10:03;100423.28;;;8.20;67.42
78354;BME280;67629;46.040;18.232;2024-02-15T03:10:43;100413.66;;;8.18;67.43
78354;BME280;67629;46.040;18.232;2024-02-15T03:11:14;100420.75;;;8.19;67.36
78354;BME280;67629;46.040;18.232;2024-02-15T03:11:45;100426.63;;;8.16;67.68
78354;BME280;67629;46.040;18.232;2024-02-15T03:12:15;100422.44;;;8.13;67.95
78354;BME280;67629;46.040;18.232;2024-02-15T03:12:49;100424.97;;;8.15;68.65
78354;BME280;67629;46.040;18.232;2024-02-15T03:13:20;100414.47;;;8.18;67.85
78354;BME280;67629;46.040;18.232;2024-02-15T03:13:51;100417.63;;;8.22;67.77
78354;BME280;67629;46.040;18.232;2024-02-15T03:14:21;100430.00;;;8.31;67.50
78354;BME280;67629;46.040;18.232;2024-02-15T03:14:52;100418.50;;;8.29;67.54
78354;BME280;67629;46.040;18.232;2024-02-15T03:15:25;100419.91;;;8.18;68.17
78354;BME280;67629;46.040;18.232;2024-02-15T03:15:56;100422.44;;;8.13;68.23
78354;BME280;67629;46.040;18.232;2024-02-15T03:16:26;100427.03;;;8.13;68.00
78354;BME280;67629;46.040;18.232;2024-02-15T03:16:57;100420.34;;;8.15;67.97
78354;BME280;67629;46.040;18.232;2024-02-15T03:17:28;100425.56;;;8.10;68.57
78354;BME280;67629;46.040;18.232;2024-02-15T03:18:02;100429.13;;;8.11;68.40
78354;BME280;67629;46.040;18.232;2024-02-15T03:26:32;100411.56;;;8.26;65.96
78354;BME280;67629;46.040;18.232;2024-02-15T03:27:08;100418.69;;;8.21;66.72
78354;BME280;67629;46.040;18.232;2024-02-15T03:29:21;100422.00;;;8.10;66.97
78354;BME280;67629;46.040;18.232;2024-02-15T03:29:53;100418.47;;;8.09;66.83
78354;BME280;67629;46.040;18.232;2024-02-15T03:30:28;100423.25;;;8.07;67.05
78354;BME280;67629;46.040;18.232;2024-02-15T03:31:57;100422.03;;;8.16;67.51
78354;BME280;67629;46.040;18.232;2024-02-15T03:32:54;100427.28;;;8.18;67.00
78354;BME280;67629;46.040;18.232;2024-02-15T03:34:20;100430.63;;;8.20;66.66
78354;BME280;67629;46.040;18.232;2024-02-15T03:34:51;100427.88;;;8.20;66.63
78354;BME280;67629;46.040;18.232;2024-02-15T03:37:28;100424.34;;;8.06;67.14
78354;BME280;67629;46.040;18.232;2024-02-15T03:37:59;100424.94;;;8.08;66.45
78354;BME280;67629;46.040;18.232;2024-02-15T03:40:44;100422.00;;;8.10;66.96
78354;BME280;67629;46.040;18.232;2024-02-15T03:43:08;100429.41;;;8.29;64.17
78354;BME280;67629;46.040;18.232;2024-02-15T03:44:43;100429.59;;;8.21;65.70
78354;BME280;67629;46.040;18.232;2024-02-15T03:45:14;100425.38;;;8.18;65.59
78354;BME280;67629;46.040;18.232;2024-02-15T03:46:22;100430.41;;;8.15;65.63
78354;BME280;67629;46.040;18.232;2024-02-15T03:46:54;100423.72;;;8.17;65.20
78354;BME280;67629;46.040;18.232;2024-02-15T03:47:25;100426.19;;;8.12;65.32
78354;BME280;67629;46.040;18.232;2024-02-15T03:47:56;100426.84;;;8.14;65.58
78354;BME280;67629;46.040;18.232;2024-02-15T03:48:26;100417.84;;;8.14;65.99
78354;BME280;67629;46.040;18.232;2024-02-15T03:48:57;100430.59;;;8.13;66.76
78354;BME280;67629;46.040;18.232;2024-02-15T03:49:28;100419.94;;;8.12;66.17
78354;BME280;67629;46.040;18.232;2024-02-15T03:49:59;100426.63;;;8.16;66.64